Terminal Aerodrome Forecast
Issued by NWS Grand Junction, CO

Home | Current Version | Previous Version | Text Only | Print | Product List | Glossary On
Versions: 1 2 3 4 5 6 7 8 9 10 11 12 13 14 15 16 17 18 19 20 21 22 23 24 25 26 27 28 29 30 31 32 33 34 35 36 37 38
000
FTUS45 KGJT 010540
TAFGJT
TAF
KGJT 010540Z 0106/0206 36006KT P6SM SCT110 BKN200
     FM010800 09005KT P6SM FEW110 BKN200
     FM011600 14005KT P6SM VCSH SCT080 BKN140
     FM012000 23009KT P6SM FEW100 SCT150
     FM020200 34006KT P6SM FEW120 BKN200=

USA.gov is the U.S. government's official web portal to all federal, state and local government web resources and services.